sensor_id;sensor_type;location;lat;lon;timestamp;P1;durP1;ratioP1;P2;durP2;ratioP2
49824;SDS011;35714;55.708;37.478;2023-02-08T00:00:43;8.57;;;4.35;;
49824;SDS011;35714;55.708;37.478;2023-02-08T00:03:09;10.82;;;4.65;;
49824;SDS011;35714;55.708;37.478;2023-02-08T00:05:35;8.73;;;3.75;;
49824;SDS011;35714;55.708;37.478;2023-02-08T00:08:00;10.25;;;5.15;;
49824;SDS011;35714;55.708;37.478;2023-02-08T00:10:26;10.38;;;5.25;;
49824;SDS011;35714;55.708;37.478;2023-02-08T00:12:52;10.15;;;5.07;;
49824;SDS011;35714;55.708;37.478;2023-02-08T00:15:18;10.45;;;4.43;;
49824;SDS011;35714;55.708;37.478;2023-02-08T00:17:43;9.13;;;4.07;;
49824;SDS011;35714;55.708;37.478;2023-02-08T00:20:09;7.45;;;4.07;;
49824;SDS011;35714;55.708;37.478;2023-02-08T00:22:36;9.23;;;4.53;;
49824;SDS011;35714;55.708;37.478;2023-02-08T00:25:03;10.20;;;4.38;;
49824;SDS011;35714;55.708;37.478;2023-02-08T00:27:32;12.13;;;4.57;;
49824;SDS011;35714;55.708;37.478;2023-02-08T00:29:58;9.00;;;4.28;;
49824;SDS011;35714;55.708;37.478;2023-02-08T00:32:24;10.38;;;4.65;;
49824;SDS011;35714;55.708;37.478;2023-02-08T00:34:49;10.20;;;4.80;;
49824;SDS011;35714;55.708;37.478;2023-02-08T00:37:15;9.65;;;5.05;;
49824;SDS011;35714;55.708;37.478;2023-02-08T00:39:41;7.65;;;3.47;;
49824;SDS011;35714;55.708;37.478;2023-02-08T00:42:07;9.85;;;4.95;;
49824;SDS011;35714;55.708;37.478;2023-02-08T00:44:33;9.52;;;4.53;;
49824;SDS011;35714;55.708;37.478;2023-02-08T00:46:59;9.88;;;5.00;;
49824;SDS011;35714;55.708;37.478;2023-02-08T00:49:24;6.18;;;3.10;;
49824;SDS011;35714;55.708;37.478;2023-02-08T00:51:50;9.20;;;4.40;;
49824;SDS011;35714;55.708;37.478;2023-02-08T00:54:16;9.68;;;4.60;;
49824;SDS011;35714;55.708;37.478;2023-02-08T00:56:44;8.85;;;4.30;;
49824;SDS011;35714;55.708;37.478;2023-02-08T00:59:10;7.15;;;3.75;;
49824;SDS011;35714;55.708;37.478;2023-02-08T01:01:36;8.07;;;3.60;;
49824;SDS011;35714;55.708;37.478;2023-02-08T01:04:02;9.55;;;3.70;;
49824;SDS011;35714;55.708;37.478;2023-02-08T01:06:29;10.65;;;5.43;;
49824;SDS011;35714;55.708;37.478;2023-02-08T01:08:54;9.05;;;4.47;;
49824;SDS011;35714;55.708;37.478;2023-02-08T01:11:21;10.63;;;4.85;;
49824;SDS011;35714;55.708;37.478;2023-02-08T01:13:53;8.63;;;4.07;;
49824;SDS011;35714;55.708;37.478;2023-02-08T01:16:39;10.57;;;4.82;;
49824;SDS011;35714;55.708;37.478;2023-02-08T01:19:05;9.40;;;4.72;;
49824;SDS011;35714;55.708;37.478;2023-02-08T01:21:35;8.80;;;4.82;;
49824;SDS011;35714;55.708;37.478;2023-02-08T01:24:02;8.43;;;4.68;;
49824;SDS011;35714;55.708;37.478;2023-02-08T01:26:29;8.02;;;3.50;;
49824;SDS011;35714;55.708;37.478;2023-02-08T01:28:55;11.13;;;5.82;;
49824;SDS011;35714;55.708;37.478;2023-02-08T01:31:24;10.20;;;5.20;;
49824;SDS011;35714;55.708;37.478;2023-02-08T01:33:58;10.63;;;4.95;;
49824;SDS011;35714;55.708;37.478;2023-02-08T01:36:25;8.68;;;4.82;;
49824;SDS011;35714;55.708;37.478;2023-02-08T01:38:52;10.27;;;4.47;;
49824;SDS011;35714;55.708;37.478;2023-02-08T01:41:19;9.65;;;5.07;;
49824;SDS011;35714;55.708;37.478;2023-02-08T01:46:24;10.48;;;4.13;;
49824;SDS011;35714;55.708;37.478;2023-02-08T01:48:50;8.38;;;4.38;;
49824;SDS011;35714;55.708;37.478;2023-02-08T01:51:21;10.48;;;5.00;;
49824;SDS011;35714;55.708;37.478;2023-02-08T01:53:51;8.65;;;4.50;;
49824;SDS011;35714;55.708;37.478;2023-02-08T01:56:20;8.27;;;4.60;;
49824;SDS011;35714;55.708;37.478;2023-02-08T01:58:59;8.55;;;4.65;;
49824;SDS011;35714;55.708;37.478;2023-02-08T02:01:27;10.25;;;5.45;;
49824;SDS011;35714;55.708;37.478;2023-02-08T02:03:56;10.25;;;4.68;;
49824;SDS011;35714;55.708;37.478;2023-02-08T02:06:27;10.43;;;5.30;;
49824;SDS011;35714;55.708;37.478;2023-02-08T02:09:03;9.25;;;4.72;;
49824;SDS011;35714;55.708;37.478;2023-02-08T02:11:36;9.27;;;5.28;;
49824;SDS011;35714;55.708;37.478;2023-02-08T02:14:02;10.30;;;5.18;;
49824;SDS011;35714;55.708;37.478;2023-02-08T02:16:48;8.90;;;5.05;;
49824;SDS011;35714;55.708;37.478;2023-02-08T02:19:23;9.85;;;5.10;;
49824;SDS011;35714;55.708;37.478;2023-02-08T02:36:17;7.75;;;3.40;;
49824;SDS011;35714;55.708;37.478;2023-02-08T02:47:05;8.95;;;4.45;;
49824;SDS011;35714;55.708;37.478;2023-02-08T02:49:38;10.52;;;4.65;;
49824;SDS011;35714;55.708;37.478;2023-02-08T02:52:34;9.52;;;4.10;;
49824;SDS011;35714;55.708;37.478;2023-02-08T02:55:09;8.65;;;4.50;;
49824;SDS011;35714;55.708;37.478;2023-02-08T02:57:39;8.32;;;4.00;;
49824;SDS011;35714;55.708;37.478;2023-02-08T03:00:08;5.80;;;2.38;;
49824;SDS011;35714;55.708;37.478;2023-02-08T03:02:36;7.35;;;3.08;;
49824;SDS011;35714;55.708;37.478;2023-02-08T03:05:02;9.85;;;4.07;;
49824;SDS011;35714;55.708;37.478;2023-02-08T03:10:12;8.38;;;4.03;;
49824;SDS011;35714;55.708;37.478;2023-02-08T03:18:39;11.07;;;3.83;;
49824;SDS011;35714;55.708;37.478;2023-02-08T03:29:10;10.90;;;4.60;;
49824;SDS011;35714;55.708;37.478;2023-02-08T03:31:55;7.03;;;3.58;;
49824;SDS011;35714;55.708;37.478;2023-02-08T03:37:12;7.20;;;3.77;;
49824;SDS011;35714;55.708;37.478;2023-02-08T03:39:50;8.75;;;4.10;;
49824;SDS011;35714;55.708;37.478;2023-02-08T03:42:23;8.23;;;3.72;;
49824;SDS011;35714;55.708;37.478;2023-02-08T03:44:53;7.38;;;3.30;;
49824;SDS011;35714;55.708;37.478;2023-02-08T03:47:24;7.53;;;3.63;;
49824;SDS011;35714;55.708;37.478;2023-02-08T03:49:54;6.63;;;3.70;;
49824;SDS011;35714;55.708;37.478;2023-02-08T03:52:24;10.00;;;3.85;;
49824;SDS011;35714;55.708;37.478;2023-02-08T03:55:15;8.27;;;3.92;;
49824;SDS011;35714;55.708;37.478;2023-02-08T03:57:51;7.63;;;3.65;;
49824;SDS011;35714;55.708;37.478;2023-02-08T04:00:18;9.32;;;4.30;;
49824;SDS011;35714;55.708;37.478;2023-02-08T04:02:56;9.40;;;3.90;;
49824;SDS011;35714;55.708;37.478;2023-02-08T04:05:30;10.90;;;4.93;;
49824;SDS011;35714;55.708;37.478;2023-02-08T04:07:56;9.77;;;3.78;;
49824;SDS011;35714;55.708;37.478;2023-02-08T04:10:22;8.57;;;3.95;;
49824;SDS011;35714;55.708;37.478;2023-02-08T04:12:48;8.85;;;3.88;;
49824;SDS011;35714;55.708;37.478;2023-02-08T04:15:14;8.43;;;3.55;;
49824;SDS011;35714;55.708;37.478;2023-02-08T04:17:40;7.85;;;4.00;;
49824;SDS011;35714;55.708;37.478;2023-02-08T04:20:05;8.80;;;3.85;;
49824;SDS011;35714;55.708;37.478;2023-02-08T04:22:32;9.38;;;4.07;;
49824;SDS011;35714;55.708;37.478;2023-02-08T04:24:58;8.35;;;4.53;;
49824;SDS011;35714;55.708;37.478;2023-02-08T04:27:24;7.72;;;4.25;;
49824;SDS011;35714;55.708;37.478;2023-02-08T04:29:49;10.38;;;4.15;;
49824;SDS011;35714;55.708;37.478;2023-02-08T04:32:15;8.82;;;4.50;;
49824;SDS011;35714;55.708;37.478;2023-02-08T04:34:41;7.65;;;3.60;;
49824;SDS011;35714;55.708;37.478;2023-02-08T04:37:07;9.07;;;4.10;;
49824;SDS011;35714;55.708;37.478;2023-02-08T04:39:33;10.48;;;4.07;;
49824;SDS011;35714;55.708;37.478;2023-02-08T04:41:59;8.18;;;4.20;;
49824;SDS011;35714;55.708;37.478;2023-02-08T04:44:24;9.93;;;3.85;;
49824;SDS011;35714;55.708;37.478;2023-02-08T04:46:50;7.88;;;3.88;;
49824;SDS011;35714;55.708;37.478;2023-02-08T04:49:16;8.88;;;4.07;;
49824;SDS011;35714;55.708;37.478;2023-02-08T04:51:41;7.93;;;4.07;;
49824;SDS011;35714;55.708;37.478;2023-02-08T04:54:07;9.27;;;4.30;;
49824;SDS011;35714;55.708;37.478;2023-02-08T04:56:33;8.15;;;3.63;;
49824;SDS011;35714;55.708;37.478;2023-02-08T04:58:59;8.55;;;3.90;;
49824;SDS011;35714;55.708;37.478;2023-02-08T05:01:25;8.48;;;4.03;;
49824;SDS011;35714;55.708;37.478;2023-02-08T05:03:50;11.68;;;4.63;;
49824;SDS011;35714;55.708;37.478;2023-02-08T05:06:16;8.95;;;4.40;;
49824;SDS011;35714;55.708;37.478;2023-02-08T05:08:42;9.73;;;4.75;;
49824;SDS011;35714;55.708;37.478;2023-02-08T05:11:07;11.27;;;3.92;;
49824;SDS011;35714;55.708;37.478;2023-02-08T05:13:33;11.43;;;4.25;;
49824;SDS011;35714;55.708;37.478;2023-02-08T05:15:59;11.95;;;5.18;;
49824;SDS011;35714;55.708;37.478;2023-02-08T05:18:24;13.38;;;4.55;;
49824;SDS011;35714;55.708;37.478;2023-02-08T05:20:54;9.73;;;4.47;;
49824;SDS011;35714;55.708;37.478;2023-02-08T05:23:24;10.35;;;4.82;;
49824;SDS011;35714;55.708;37.478;2023-02-08T05:25:50;15.68;;;6.22;;
49824;SDS011;35714;55.708;37.478;2023-02-08T05:28:16;18.52;;;7.20;;
49824;SDS011;35714;55.708;37.478;2023-02-08T05:30:41;18.58;;;7.38;;
49824;SDS011;35714;55.708;37.478;2023-02-08T05:33:07;16.98;;;6.97;;
49824;SDS011;35714;55.708;37.478;2023-02-08T05:35:33;11.95;;;5.25;;
49824;SDS011;35714;55.708;37.478;2023-02-08T05:37:58;11.30;;;4.65;;
49824;SDS011;35714;55.708;37.478;2023-02-08T05:40:24;13.77;;;5.07;;
49824;SDS011;35714;55.708;37.478;2023-02-08T05:42:50;16.98;;;6.55;;
49824;SDS011;35714;55.708;37.478;2023-02-08T05:45:15;12.75;;;5.07;;
49824;SDS011;35714;55.708;37.478;2023-02-08T05:47:41;17.73;;;6.82;;
49824;SDS011;35714;55.708;37.478;2023-02-08T05:50:07;13.80;;;6.18;;
49824;SDS011;35714;55.708;37.478;2023-02-08T05:52:33;10.85;;;4.97;;
49824;SDS011;35714;55.708;37.478;2023-02-08T05:54:59;16.92;;;5.32;;
49824;SDS011;35714;55.708;37.478;2023-02-08T05:57:24;11.52;;;4.72;;
49824;SDS011;35714;55.708;37.478;2023-02-08T05:59:50;12.15;;;5.57;;
49824;SDS011;35714;55.708;37.478;2023-02-08T06:02:16;12.07;;;4.45;;
49824;SDS011;35714;55.708;37.478;2023-02-08T06:04:41;12.52;;;4.93;;
49824;SDS011;35714;55.708;37.478;2023-02-08T06:07:07;15.25;;;6.68;;
49824;SDS011;35714;55.708;37.478;2023-02-08T06:09:33;12.80;;;5.78;;
49824;SDS011;35714;55.708;37.478;2023-02-08T06:11:58;12.48;;;5.70;;
49824;SDS011;35714;55.708;37.478;2023-02-08T06:14:24;12.70;;;4.93;;
49824;SDS011;35714;55.708;37.478;2023-02-08T06:16:50;11.63;;;5.28;;
49824;SDS011;35714;55.708;37.478;2023-02-08T06:19:15;13.32;;;5.85;;
49824;SDS011;35714;55.708;37.478;2023-02-08T06:21:41;13.38;;;5.88;;
49824;SDS011;35714;55.708;37.478;2023-02-08T06:24:07;11.52;;;5.60;;
49824;SDS011;35714;55.708;37.478;2023-02-08T06:26:32;11.93;;;4.85;;
49824;SDS011;35714;55.708;37.478;2023-02-08T06:28:59;11.35;;;5.57;;
49824;SDS011;35714;55.708;37.478;2023-02-08T06:31:25;10.32;;;4.85;;
49824;SDS011;35714;55.708;37.478;2023-02-08T06:33:51;13.02;;;6.18;;
49824;SDS011;35714;55.708;37.478;2023-02-08T06:36:16;12.40;;;4.88;;
49824;SDS011;35714;55.708;37.478;2023-02-08T06:38:42;11.38;;;5.78;;
49824;SDS011;35714;55.708;37.478;2023-02-08T06:41:11;12.25;;;4.47;;
49824;SDS011;35714;55.708;37.478;2023-02-08T06:43:36;7.38;;;3.17;;
49824;SDS011;35714;55.708;37.478;2023-02-08T06:46:03;11.73;;;6.00;;
49824;SDS011;35714;55.708;37.478;2023-02-08T06:48:29;9.70;;;4.32;;
49824;SDS011;35714;55.708;37.478;2023-02-08T06:50:55;13.65;;;5.70;;
49824;SDS011;35714;55.708;37.478;2023-02-08T06:53:21;10.18;;;4.10;;
49824;SDS011;35714;55.708;37.478;2023-02-08T06:55:47;13.07;;;5.60;;
49824;SDS011;35714;55.708;37.478;2023-02-08T06:58:14;11.00;;;5.15;;
49824;SDS011;35714;55.708;37.478;2023-02-08T07:00:39;13.88;;;5.65;;
49824;SDS011;35714;55.708;37.478;2023-02-08T07:03:05;10.50;;;5.22;;
49824;SDS011;35714;55.708;37.478;2023-02-08T07:05:34;11.40;;;4.68;;
49824;SDS011;35714;55.708;37.478;2023-02-08T07:08:00;15.52;;;6.30;;
49824;SDS011;35714;55.708;37.478;2023-02-08T07:10:26;17.42;;;6.20;;
49824;SDS011;35714;55.708;37.478;2023-02-08T07:12:51;10.63;;;5.45;;
49824;SDS011;35714;55.708;37.478;2023-02-08T07:15:17;15.95;;;4.88;;
49824;SDS011;35714;55.708;37.478;2023-02-08T07:17:43;11.43;;;4.78;;
49824;SDS011;35714;55.708;37.478;2023-02-08T07:20:10;13.05;;;5.45;;
49824;SDS011;35714;55.708;37.478;2023-02-08T07:22:36;11.35;;;4.82;;
49824;SDS011;35714;55.708;37.478;2023-02-08T07:25:03;13.10;;;6.20;;
49824;SDS011;35714;55.708;37.478;2023-02-08T07:27:29;13.13;;;5.15;;
49824;SDS011;35714;55.708;37.478;2023-02-08T07:29:55;12.57;;;5.32;;
49824;SDS011;35714;55.708;37.478;2023-02-08T07:32:20;11.40;;;5.25;;
49824;SDS011;35714;55.708;37.478;2023-02-08T07:34:46;10.50;;;5.53;;
49824;SDS011;35714;55.708;37.478;2023-02-08T07:37:12;12.18;;;5.82;;
49824;SDS011;35714;55.708;37.478;2023-02-08T07:39:38;13.25;;;5.43;;
49824;SDS011;35714;55.708;37.478;2023-02-08T07:42:03;11.32;;;4.90;;
49824;SDS011;35714;55.708;37.478;2023-02-08T07:44:38;11.27;;;4.47;;
49824;SDS011;35714;55.708;37.478;2023-02-08T07:47:04;10.20;;;5.18;;
49824;SDS011;35714;55.708;37.478;2023-02-08T07:49:31;13.25;;;5.50;;
49824;SDS011;35714;55.708;37.478;2023-02-08T07:52:00;10.95;;;5.25;;
49824;SDS011;35714;55.708;37.478;2023-02-08T07:54:26;7.75;;;4.53;;
49824;SDS011;35714;55.708;37.478;2023-02-08T07:56:52;10.35;;;5.18;;
49824;SDS011;35714;55.708;37.478;2023-02-08T07:59:17;10.25;;;4.25;;
49824;SDS011;35714;55.708;37.478;2023-02-08T08:01:43;12.02;;;4.40;;
49824;SDS011;35714;55.708;37.478;2023-02-08T08:04:09;10.77;;;4.65;;
49824;SDS011;35714;55.708;37.478;2023-02-08T08:06:34;14.07;;;5.05;;
49824;SDS011;35714;55.708;37.478;2023-02-08T08:09:00;8.00;;;3.90;;
49824;SDS011;35714;55.708;37.478;2023-02-08T08:11:26;14.10;;;5.38;;
49824;SDS011;35714;55.708;37.478;2023-02-08T08:13:52;10.52;;;5.63;;
49824;SDS011;35714;55.708;37.478;2023-02-08T08:16:18;9.40;;;4.22;;
49824;SDS011;35714;55.708;37.478;2023-02-08T08:18:44;9.52;;;5.03;;
49824;SDS011;35714;55.708;37.478;2023-02-08T08:21:10;10.55;;;5.32;;
49824;SDS011;35714;55.708;37.478;2023-02-08T08:23:36;11.73;;;5.63;;
49824;SDS011;35714;55.708;37.478;2023-02-08T08:26:06;9.13;;;4.82;;
49824;SDS011;35714;55.708;37.478;2023-02-08T08:28:38;8.75;;;3.90;;
49824;SDS011;35714;55.708;37.478;2023-02-08T08:31:11;7.25;;;3.28;;
49824;SDS011;35714;55.708;37.478;2023-02-08T08:33:39;8.85;;;4.20;;
49824;SDS011;35714;55.708;37.478;2023-02-08T08:36:05;10.02;;;4.95;;
49824;SDS011;35714;55.708;37.478;2023-02-08T08:38:32;9.63;;;4.55;;
49824;SDS011;35714;55.708;37.478;2023-02-08T08:40:57;9.73;;;4.80;;
49824;SDS011;35714;55.708;37.478;2023-02-08T08:43:23;9.55;;;4.72;;
49824;SDS011;35714;55.708;37.478;2023-02-08T08:45:49;8.95;;;4.10;;
49824;SDS011;35714;55.708;37.478;2023-02-08T08:48:14;10.70;;;4.63;;
49824;SDS011;35714;55.708;37.478;2023-02-08T08:50:40;8.80;;;4.10;;
49824;SDS011;35714;55.708;37.478;2023-02-08T08:53:07;12.32;;;4.47;;
49824;SDS011;35714;55.708;37.478;2023-02-08T08:55:33;15.07;;;5.78;;
49824;SDS011;35714;55.708;37.478;2023-02-08T08:57:59;11.27;;;5.15;;
49824;SDS011;35714;55.708;37.478;2023-02-08T09:00:24;10.27;;;3.75;;
49824;SDS011;35714;55.708;37.478;2023-02-08T09:02:51;9.93;;;4.30;;
49824;SDS011;35714;55.708;37.478;2023-02-08T09:05:17;8.80;;;3.25;;
49824;SDS011;35714;55.708;37.478;2023-02-08T09:07:42;6.68;;;2.85;;
49824;SDS011;35714;55.708;37.478;2023-02-08T09:10:08;11.70;;;4.40;;
49824;SDS011;35714;55.708;37.478;2023-02-08T09:12:34;12.45;;;4.43;;
49824;SDS011;35714;55.708;37.478;2023-02-08T09:14:59;12.15;;;5.25;;
49824;SDS011;35714;55.708;37.478;2023-02-08T09:17:25;10.75;;;3.97;;
49824;SDS011;35714;55.708;37.478;2023-02-08T09:19:51;9.95;;;4.63;;
49824;SDS011;35714;55.708;37.478;2023-02-08T09:22:16;9.95;;;5.63;;
49824;SDS011;35714;55.708;37.478;2023-02-08T09:24:42;14.25;;;5.03;;
49824;SDS011;35714;55.708;37.478;2023-02-08T09:27:08;9.10;;;4.10;;
49824;SDS011;35714;55.708;37.478;2023-02-08T09:29:34;12.32;;;5.07;;
49824;SDS011;35714;55.708;37.478;2023-02-08T09:31:59;9.30;;;4.32;;
49824;SDS011;35714;55.708;37.478;2023-02-08T09:34:26;11.88;;;4.88;;
49824;SDS011;35714;55.708;37.478;2023-02-08T09:36:52;10.88;;;5.00;;
49824;SDS011;35714;55.708;37.478;2023-02-08T09:39:21;12.73;;;5.32;;
49824;SDS011;35714;55.708;37.478;2023-02-08T09:47:33;10.93;;;4.85;;
49824;SDS011;35714;55.708;37.478;2023-02-08T09:50:13;14.07;;;5.53;;
49824;SDS011;35714;55.708;37.478;2023-02-08T09:53:03;8.27;;;3.92;;
49824;SDS011;35714;55.708;37.478;2023-02-08T09:55:41;10.38;;;4.80;;
49824;SDS011;35714;55.708;37.478;2023-02-08T10:00:50;11.68;;;5.30;;
49824;SDS011;35714;55.708;37.478;2023-02-08T10:03:28;11.35;;;5.88;;
49824;SDS011;35714;55.708;37.478;2023-02-08T10:06:03;12.52;;;5.55;;
49824;SDS011;35714;55.708;37.478;2023-02-08T10:08:30;12.23;;;5.57;;
49824;SDS011;35714;55.708;37.478;2023-02-08T10:18:58;10.70;;;5.38;;
49824;SDS011;35714;55.708;37.478;2023-02-08T10:27:15;12.35;;;5.35;;
49824;SDS011;35714;55.708;37.478;2023-02-08T10:30:09;11.43;;;5.05;;
49824;SDS011;35714;55.708;37.478;2023-02-08T10:32:57;9.23;;;3.95;;
49824;SDS011;35714;55.708;37.478;2023-02-08T10:35:32;9.80;;;4.63;;
49824;SDS011;35714;55.708;37.478;2023-02-08T10:38:09;11.13;;;4.65;;
49824;SDS011;35714;55.708;37.478;2023-02-08T10:40:54;10.45;;;4.70;;
49824;SDS011;35714;55.708;37.478;2023-02-08T10:48:30;10.35;;;5.00;;
49824;SDS011;35714;55.708;37.478;2023-02-08T10:51:08;11.07;;;5.70;;
49824;SDS011;35714;55.708;37.478;2023-02-08T10:53:40;11.10;;;5.57;;
49824;SDS011;35714;55.708;37.478;2023-02-08T10:56:05;13.20;;;6.15;;
49824;SDS011;35714;55.708;37.478;2023-02-08T10:58:34;13.13;;;5.72;;
49824;SDS011;35714;55.708;37.478;2023-02-08T11:01:00;10.20;;;4.97;;
49824;SDS011;35714;55.708;37.478;2023-02-08T11:03:28;8.57;;;4.65;;
49824;SDS011;35714;55.708;37.478;2023-02-08T11:05:54;11.02;;;5.95;;
49824;SDS011;35714;55.708;37.478;2023-02-08T11:08:21;13.95;;;5.68;;
49824;SDS011;35714;55.708;37.478;2023-02-08T11:13:41;10.60;;;6.00;;
49824;SDS011;35714;55.708;37.478;2023-02-08T11:16:09;10.30;;;5.45;;
49824;SDS011;35714;55.708;37.478;2023-02-08T11:18:48;12.02;;;5.85;;
49824;SDS011;35714;55.708;37.478;2023-02-08T11:21:24;12.63;;;5.78;;
49824;SDS011;35714;55.708;37.478;2023-02-08T11:23:58;9.65;;;4.90;;
49824;SDS011;35714;55.708;37.478;2023-02-08T11:32:14;8.10;;;3.88;;
49824;SDS011;35714;55.708;37.478;2023-02-08T11:37:14;7.95;;;3.92;;
49824;SDS011;35714;55.708;37.478;2023-02-08T11:39:52;8.20;;;3.58;;
49824;SDS011;35714;55.708;37.478;2023-02-08T11:45:24;6.07;;;3.22;;
49824;SDS011;35714;55.708;37.478;2023-02-08T11:47:54;9.18;;;4.20;;
49824;SDS011;35714;55.708;37.478;2023-02-08T11:50:25;8.75;;;4.07;;
49824;SDS011;35714;55.708;37.478;2023-02-08T11:53:05;8.50;;;3.15;;
49824;SDS011;35714;55.708;37.478;2023-02-08T11:55:44;9.80;;;3.13;;
49824;SDS011;35714;55.708;37.478;2023-02-08T12:00:36;7.40;;;3.65;;
49824;SDS011;35714;55.708;37.478;2023-02-08T12:03:13;6.60;;;2.95;;
49824;SDS011;35714;55.708;37.478;2023-02-08T12:09:06;9.38;;;3.97;;
49824;SDS011;35714;55.708;37.478;2023-02-08T12:11:44;7.45;;;4.25;;
49824;SDS011;35714;55.708;37.478;2023-02-08T12:16:55;10.52;;;3.88;;
49824;SDS011;35714;55.708;37.478;2023-02-08T12:22:39;9.30;;;3.40;;
49824;SDS011;35714;55.708;37.478;2023-02-08T12:38:47;8.90;;;4.03;;
49824;SDS011;35714;55.708;37.478;2023-02-08T12:44:33;8.90;;;4.70;;
49824;SDS011;35714;55.708;37.478;2023-02-08T12:47:24;7.07;;;3.13;;
49824;SDS011;35714;55.708;37.478;2023-02-08T12:52:52;8.15;;;3.63;;
49824;SDS011;35714;55.708;37.478;2023-02-08T12:55:39;8.80;;;4.03;;
49824;SDS011;35714;55.708;37.478;2023-02-08T13:00:46;13.40;;;4.30;;
49824;SDS011;35714;55.708;37.478;2023-02-08T13:06:14;9.02;;;4.10;;
49824;SDS011;35714;55.708;37.478;2023-02-08T13:08:51;6.78;;;2.95;;
49824;SDS011;35714;55.708;37.478;2023-02-08T13:17:15;9.30;;;3.72;;
49824;SDS011;35714;55.708;37.478;2023-02-08T13:19:56;7.82;;;3.03;;
49824;SDS011;35714;55.708;37.478;2023-02-08T13:22:29;6.85;;;3.33;;
49824;SDS011;35714;55.708;37.478;2023-02-08T13:24:58;10.80;;;4.50;;
49824;SDS011;35714;55.708;37.478;2023-02-08T13:27:28;8.95;;;4.03;;
49824;SDS011;35714;55.708;37.478;2023-02-08T13:29:53;8.25;;;4.10;;
49824;SDS011;35714;55.708;37.478;2023-02-08T13:35:01;11.10;;;4.67;;
49824;SDS011;35714;55.708;37.478;2023-02-08T13:37:35;8.48;;;3.92;;
49824;SDS011;35714;55.708;37.478;2023-02-08T13:40:11;10.73;;;4.13;;
49824;SDS011;35714;55.708;37.478;2023-02-08T13:42:59;8.35;;;3.95;;
49824;SDS011;35714;55.708;37.478;2023-02-08T13:45:28;7.60;;;3.95;;
49824;SDS011;35714;55.708;37.478;2023-02-08T13:48:04;11.75;;;4.13;;
49824;SDS011;35714;55.708;37.478;2023-02-08T13:53:07;11.23;;;4.78;;
49824;SDS011;35714;55.708;37.478;2023-02-08T14:03:43;6.43;;;3.05;;
49824;SDS011;35714;55.708;37.478;2023-02-08T14:06:28;7.45;;;3.85;;
49824;SDS011;35714;55.708;37.478;2023-02-08T14:16:44;9.10;;;4.88;;
49824;SDS011;35714;55.708;37.478;2023-02-08T14:21:47;11.43;;;5.20;;
49824;SDS011;35714;55.708;37.478;2023-02-08T14:27:07;9.68;;;4.43;;
49824;SDS011;35714;55.708;37.478;2023-02-08T14:29:41;7.97;;;4.05;;
49824;SDS011;35714;55.708;37.478;2023-02-08T14:32:07;11.75;;;5.57;;
49824;SDS011;35714;55.708;37.478;2023-02-08T14:34:46;9.10;;;4.45;;
49824;SDS011;35714;55.708;37.478;2023-02-08T14:39:45;9.73;;;4.05;;
49824;SDS011;35714;55.708;37.478;2023-02-08T14:42:16;9.88;;;4.47;;
49824;SDS011;35714;55.708;37.478;2023-02-08T14:45:27;6.90;;;3.40;;
49824;SDS011;35714;55.708;37.478;2023-02-08T15:04:10;9.75;;;4.80;;
49824;SDS011;35714;55.708;37.478;2023-02-08T15:09:04;9.70;;;4.00;;
49824;SDS011;35714;55.708;37.478;2023-02-08T15:11:37;7.63;;;3.80;;
49824;SDS011;35714;55.708;37.478;2023-02-08T15:14:05;8.27;;;3.65;;
49824;SDS011;35714;55.708;37.478;2023-02-08T15:16:34;8.32;;;3.20;;
49824;SDS011;35714;55.708;37.478;2023-02-08T15:19:04;11.52;;;4.38;;
49824;SDS011;35714;55.708;37.478;2023-02-08T15:21:32;8.25;;;3.72;;
49824;SDS011;35714;55.708;37.478;2023-02-08T15:24:21;8.48;;;3.70;;
49824;SDS011;35714;55.708;37.478;2023-02-08T15:26:51;8.43;;;3.20;;
49824;SDS011;35714;55.708;37.478;2023-02-08T15:31:53;9.00;;;3.53;;
49824;SDS011;35714;55.708;37.478;2023-02-08T15:34:24;7.30;;;2.97;;
49824;SDS011;35714;55.708;37.478;2023-02-08T15:36:54;9.20;;;3.90;;
49824;SDS011;35714;55.708;37.478;2023-02-08T15:39:26;7.53;;;4.00;;
49824;SDS011;35714;55.708;37.478;2023-02-08T15:42:02;7.03;;;3.03;;
49824;SDS011;35714;55.708;37.478;2023-02-08T15:44:30;8.02;;;3.80;;
49824;SDS011;35714;55.708;37.478;2023-02-08T15:46:59;9.63;;;3.95;;
49824;SDS011;35714;55.708;37.478;2023-02-08T15:49:34;7.63;;;3.90;;
49824;SDS011;35714;55.708;37.478;2023-02-08T15:52:02;5.40;;;2.10;;
49824;SDS011;35714;55.708;37.478;2023-02-08T15:54:29;7.95;;;3.78;;
49824;SDS011;35714;55.708;37.478;2023-02-08T15:56:57;7.22;;;3.08;;
49824;SDS011;35714;55.708;37.478;2023-02-08T15:59:31;6.72;;;3.28;;
49824;SDS011;35714;55.708;37.478;2023-02-08T16:04:55;7.53;;;3.13;;
49824;SDS011;35714;55.708;37.478;2023-02-08T16:07:27;8.13;;;3.22;;
49824;SDS011;35714;55.708;37.478;2023-02-08T16:09:57;9.25;;;4.05;;
49824;SDS011;35714;55.708;37.478;2023-02-08T16:12:24;10.60;;;4.38;;
49824;SDS011;35714;55.708;37.478;2023-02-08T16:14:51;7.28;;;3.85;;
49824;SDS011;35714;55.708;37.478;2023-02-08T16:31:01;8.98;;;3.88;;
49824;SDS011;35714;55.708;37.478;2023-02-08T16:33:29;5.53;;;2.58;;
49824;SDS011;35714;55.708;37.478;2023-02-08T16:35:57;7.50;;;2.58;;
49824;SDS011;35714;55.708;37.478;2023-02-08T16:38:28;6.97;;;3.13;;
49824;SDS011;35714;55.708;37.478;2023-02-08T16:40:56;7.88;;;3.58;;
49824;SDS011;35714;55.708;37.478;2023-02-08T16:43:37;7.20;;;3.65;;
49824;SDS011;35714;55.708;37.478;2023-02-08T16:48:41;6.47;;;3.38;;
49824;SDS011;35714;55.708;37.478;2023-02-08T16:51:12;8.82;;;3.75;;
49824;SDS011;35714;55.708;37.478;2023-02-08T16:53:42;7.90;;;3.53;;
49824;SDS011;35714;55.708;37.478;2023-02-08T16:56:11;11.48;;;4.05;;
49824;SDS011;35714;55.708;37.478;2023-02-08T16:58:37;6.78;;;3.08;;
49824;SDS011;35714;55.708;37.478;2023-02-08T17:01:04;6.78;;;2.90;;
49824;SDS011;35714;55.708;37.478;2023-02-08T17:03:31;7.47;;;3.30;;
49824;SDS011;35714;55.708;37.478;2023-02-08T17:05:59;6.82;;;2.80;;
49824;SDS011;35714;55.708;37.478;2023-02-08T17:08:25;6.68;;;3.40;;
49824;SDS011;35714;55.708;37.478;2023-02-08T17:10:52;8.00;;;3.20;;
49824;SDS011;35714;55.708;37.478;2023-02-08T17:13:23;6.57;;;3.10;;
49824;SDS011;35714;55.708;37.478;2023-02-08T17:15:53;6.88;;;2.72;;
49824;SDS011;35714;55.708;37.478;2023-02-08T17:18:19;7.18;;;2.97;;
49824;SDS011;35714;55.708;37.478;2023-02-08T17:20:46;6.15;;;3.03;;
49824;SDS011;35714;55.708;37.478;2023-02-08T17:23:12;9.90;;;4.93;;
49824;SDS011;35714;55.708;37.478;2023-02-08T17:25:40;6.32;;;3.28;;
49824;SDS011;35714;55.708;37.478;2023-02-08T17:28:07;6.50;;;3.20;;
49824;SDS011;35714;55.708;37.478;2023-02-08T17:30:40;6.40;;;3.05;;
49824;SDS011;35714;55.708;37.478;2023-02-08T17:33:08;6.63;;;3.28;;
49824;SDS011;35714;55.708;37.478;2023-02-08T17:35:43;6.53;;;3.00;;
49824;SDS011;35714;55.708;37.478;2023-02-08T17:38:13;8.02;;;3.80;;
49824;SDS011;35714;55.708;37.478;2023-02-08T17:40:41;6.30;;;3.22;;
49824;SDS011;35714;55.708;37.478;2023-02-08T17:43:09;7.32;;;3.90;;
49824;SDS011;35714;55.708;37.478;2023-02-08T17:45:37;7.15;;;3.00;;
49824;SDS011;35714;55.708;37.478;2023-02-08T17:48:04;8.00;;;3.55;;
49824;SDS011;35714;55.708;37.478;2023-02-08T17:50:31;7.72;;;3.10;;
49824;SDS011;35714;55.708;37.478;2023-02-08T17:52:57;7.35;;;3.38;;
49824;SDS011;35714;55.708;37.478;2023-02-08T17:55:24;7.68;;;3.42;;
49824;SDS011;35714;55.708;37.478;2023-02-08T17:57:51;7.20;;;3.35;;